Falmouth, Kentucky
Current Conditions -  °F | °C
As of 11:53 PM on Wednesday 26 Nov 2014 (Local Time) from KLUK Reporting Station
Overcast Overcast  
Wind Chill: 25°   Ceiling: 10000
Heat Index: 31°   Visibility: 9mi
Dew Point: 25°   Wind: 6mph
Humidity: 79%   Direction: 10°N
Pressure: 30.09"   Gusts: NA
Location:  38.68°N, 84.33°W
Report Text: KLUK 270453Z AUTO 01005KT 9SM OVC100 M01/M04 A3009 RMK AO2 SLP193 T10061039 400441044
Loading
Personal Weather Stations






























Interactive Weather Map New forecast layout! Learn more

10-Day Weather Forecast

Advertisements
Track Severe Weather on mobile